Time;durP1;ratioP1;P1;durP2;ratioP2;P2;SDS_P1;SDS_P2;PMS_P1;PMS_P2;Temp;Humidity;BMP_temperature;BMP_pressure;BME280_temperature;BME280_humidity;BME280_pressure;Samples;Min_cycle;Max_cycle;Signal;HPM_P1;HPM_P2
2022/06/13 00:01:33;;;;;;;9.40;3.33;;;;;;;-148.88;76.80;75890.97;4993324;28;20033;-74
2022/06/13 00:04:00;;;;;;;8.50;3.40;;;;;;;-148.88;77.33;75907.22;4993679;28;20027;-75
2022/06/13 00:06:26;;;;;;;8.40;3.28;;;;;;;-148.88;77.16;75907.22;4993380;28;20038;-74
2022/06/13 00:08:52;;;;;;;9.77;3.78;;;;;;;-148.88;77.50;75903.16;4993341;28;20030;-74
2022/06/13 00:11:21;;;;;;;9.93;3.65;;;;;;;-148.88;77.96;75919.41;4992153;28;20033;-74
2022/06/13 00:13:49;;;;;;;8.05;3.47;;;;;;;-148.88;78.25;75925.50;4993516;28;20467;-74
2022/06/13 00:16:15;;;;;;;9.07;3.50;;;;;;;-148.88;79.34;75929.56;4993179;28;20053;-74
2022/06/13 00:18:47;;;;;;;10.65;3.55;;;;;;;-148.88;79.48;75933.63;4995500;28;20088;-74
2022/06/13 00:21:13;;;;;;;9.63;3.13;;;;;;;-148.88;78.82;75925.50;4997237;28;20083;-75
2022/06/13 00:23:38;;;;;;;8.95;3.30;;;;;;;-148.88;78.50;75917.38;4997189;28;20030;-74
2022/06/13 00:26:04;;;;;;;8.38;3.22;;;;;;;-148.88;79.14;75933.63;4997081;28;20041;-74
2022/06/13 00:28:29;;;;;;;11.65;3.95;;;;;;;-148.88;79.36;75935.66;4997555;28;20121;-74
2022/06/13 00:30:54;;;;;;;13.85;4.13;;;;;;;-148.88;79.30;75925.50;4997138;28;20084;-74
2022/06/13 00:33:19;;;;;;;12.25;3.70;;;;;;;-148.88;78.22;75909.25;4996804;28;20022;-74
2022/06/13 00:35:45;;;;;;;9.98;3.60;;;;;;;-148.88;77.46;75897.06;4996761;28;20080;-75
2022/06/13 00:38:11;;;;;;;11.55;3.95;;;;;;;-148.88;77.15;75903.16;4995660;28;20026;-74
2022/06/13 00:40:37;;;;;;;9.02;3.22;;;;;;;-148.88;77.14;75903.16;4996984;28;20517;-74
2022/06/13 00:43:05;;;;;;;7.90;3.63;;;;;;;-148.88;77.57;75905.19;4996692;28;20118;-74
2022/06/13 00:45:33;;;;;;;10.68;3.58;;;;;;;-148.88;77.42;75903.16;4997215;28;20060;-74
2022/06/13 00:47:58;;;;;;;8.25;3.33;;;;;;;-148.88;77.36;75911.28;4996826;28;20106;-74
2022/06/13 00:50:28;;;;;;;7.10;3.40;;;;;;;-148.88;77.41;75911.28;4997097;28;20031;-74
2022/06/13 00:53:11;;;;;;;10.73;4.40;;;;;;;-148.88;78.79;75925.50;4996504;28;20030;-74
2022/06/13 00:55:43;;;;;;;10.57;4.13;;;;;;;-148.88;78.54;75935.66;4996604;28;20065;-74
2022/06/13 00:58:10;;;;;;;8.18;3.95;;;;;;;-148.88;78.21;75921.44;4996673;28;20026;-74
2022/06/13 01:00:35;;;;;;;9.75;4.18;;;;;;;-148.88;78.11;75935.66;4996379;28;20108;-74
2022/06/13 01:03:03;;;;;;;8.23;3.38;;;;;;;-148.88;78.38;75927.53;4995031;28;20121;-74
2022/06/13 01:05:33;;;;;;;9.75;3.70;;;;;;;-148.88;78.86;75947.84;4996427;28;20022;-74
2022/06/13 01:08:00;;;;;;;8.40;3.53;;;;;;;-148.88;79.54;75951.91;4996538;28;20033;-74
2022/06/13 01:13:11;;;;;;;9.00;3.95;;;;;;;-148.88;79.64;75976.28;4996329;28;20073;-74
2022/06/13 01:15:48;;;;;;;7.38;3.60;;;;;;;-148.88;80.33;75980.34;4996289;28;20022;-74
2022/06/13 01:18:32;;;;;;;8.68;3.80;;;;;;;-148.88;81.36;75984.41;4995951;28;20026;-74
2022/06/13 01:21:29;;;;;;;9.40;3.63;;;;;;;-148.88;81.06;75976.28;4994668;28;20026;-74
2022/06/13 01:24:09;;;;;;;12.48;4.05;;;;;;;-148.88;81.41;75984.41;4995927;28;20053;-74
2022/06/13 01:27:04;;;;;;;10.93;3.88;;;;;;;-148.88;81.05;75968.16;4995883;28;20026;-74
2022/06/13 01:29:59;;;;;;;11.23;4.05;;;;;;;-148.88;80.45;75972.22;4995663;28;20037;-74
2022/06/13 01:32:43;;;;;;;;;;;;;;;-148.88;81.27;75988.47;4996287;28;20033;-75
2022/06/13 01:35:18;;;;;;;12.23;3.90;;;;;;;-148.88;82.08;75982.38;4995724;28;20394;-74
2022/06/13 01:38:01;;;;;;;9.98;3.80;;;;;;;-148.88;81.41;75984.41;4995829;28;20030;-73
2022/06/13 01:41:08;;;;;;;12.38;4.10;;;;;;;-148.88;81.86;75982.38;4995757;28;20034;-74
2022/06/13 01:43:52;;;;;;;8.90;3.88;;;;;;;-148.88;80.94;75982.38;4995647;28;20105;-74
2022/06/13 01:46:21;;;;;;;8.65;3.80;;;;;;;-148.88;80.82;75992.53;4995550;28;20081;-74
2022/06/13 01:49:00;;;;;;;8.38;3.92;;;;;;;-148.88;81.18;75990.50;4995383;28;20022;-74
2022/06/13 01:51:34;;;;;;;9.40;3.70;;;;;;;-148.88;80.65;75984.41;4995513;28;20469;-74
2022/06/13 01:54:20;;;;;;;8.85;3.72;;;;;;;-148.88;81.06;75998.63;4995477;28;20026;-74
2022/06/13 01:57:01;;;;;;;11.48;3.95;;;;;;;-148.88;82.05;76000.66;4995286;28;20029;-74
2022/06/13 01:59:36;;;;;;;11.13;4.18;;;;;;;-148.88;82.15;76016.91;4995197;28;20116;-74
2022/06/13 02:02:18;;;;;;;9.88;4.03;;;;;;;-148.88;83.18;76029.09;4995221;28;20498;-74
2022/06/13 02:04:59;;;;;;;10.02;3.95;;;;;;;-148.88;83.58;76029.09;4995135;28;20130;-74
2022/06/13 02:07:29;;;;;;;10.52;3.88;;;;;;;-148.88;83.07;76020.97;4994927;28;20022;-74
2022/06/13 02:09:59;;;;;;;8.18;4.25;;;;;;;-148.88;82.71;76012.84;4995402;28;20364;-74
2022/06/13 02:12:29;;;;;;;12.30;4.65;;;;;;;-148.88;82.10;76008.78;4994915;28;20030;-74
2022/06/13 02:15:05;;;;;;;11.35;4.38;;;;;;;-148.88;82.84;76012.84;4994960;28;20032;-74
2022/06/13 02:17:36;;;;;;;12.02;4.28;;;;;;;-148.88;82.81;76004.72;4995158;28;20030;-74
2022/06/13 02:20:15;;;;;;;7.75;4.18;;;;;;;-148.88;82.99;76004.72;4995148;28;20030;-74
2022/06/13 02:22:45;;;;;;;10.73;4.57;;;;;;;-148.88;83.08;76014.88;4995113;28;20022;-74
2022/06/13 02:25:18;;;;;;;10.43;4.65;;;;;;;-148.88;82.69;76008.78;4995046;28;20026;-74
2022/06/13 02:27:50;;;;;;;9.82;4.07;;;;;;;-148.88;82.94;76025.03;4994993;28;20113;-74
2022/06/13 02:30:18;;;;;;;11.30;4.20;;;;;;;-148.88;83.09;76029.09;4994948;28;20109;-74
2022/06/13 02:32:56;;;;;;;9.88;4.20;;;;;;;-148.88;83.74;76037.22;4994812;28;20033;-74
2022/06/13 02:35:36;;;;;;;12.80;4.43;;;;;;;-148.88;84.18;76049.41;4993405;28;20484;-74
2022/06/13 02:38:08;;;;;;;12.43;4.80;;;;;;;-148.88;83.82;76049.41;4994798;28;20121;-74
2022/06/13 02:40:38;;;;;;;6.78;4.00;;;;;;;-148.88;84.02;76035.19;4994433;28;20061;-74
2022/06/13 02:43:18;;;;;;;11.55;4.75;;;;;;;-148.88;84.41;76043.31;4994777;28;20025;-74
2022/06/13 02:45:50;;;;;;;10.05;4.45;;;;;;;-148.88;84.08;76041.28;4994994;28;20038;-74
2022/06/13 02:48:24;;;;;;;14.02;4.75;;;;;;;-148.88;84.86;76051.44;4994540;28;20502;-74
2022/06/13 02:51:01;;;;;;;9.75;4.50;;;;;;;-148.88;84.74;76045.34;4994397;28;20030;-74
2022/06/13 02:53:35;;;;;;;8.05;4.55;;;;;;;-148.88;85.41;76045.34;4994404;28;20041;-74
2022/06/13 02:56:10;;;;;;;8.93;4.53;;;;;;;-148.88;85.39;76045.34;4994307;28;20404;-74
2022/06/13 02:59:01;;;;;;;12.73;5.20;;;;;;;-148.88;85.73;76049.41;4994353;28;20038;-74
2022/06/13 03:01:35;;;;;;;10.20;5.40;;;;;;;-148.88;86.02;76057.53;4994231;28;20109;-74
2022/06/13 03:04:16;;;;;;;10.25;5.00;;;;;;;-148.88;86.69;76061.59;4994327;28;20026;-74
2022/06/13 03:06:55;;;;;;;10.55;4.45;;;;;;;-148.88;85.86;76057.53;4994013;28;20053;-74
2022/06/13 03:09:44;;;;;;;9.82;4.45;;;;;;;-148.88;85.66;76061.59;4994196;28;20506;-74
2022/06/13 03:12:27;;;;;;;10.60;4.75;;;;;;;-148.88;86.66;76057.53;4994275;28;20034;-74
2022/06/13 03:15:01;;;;;;;10.88;5.20;;;;;;;-148.88;86.24;76057.53;4994214;28;20097;-74
2022/06/13 03:17:53;;;;;;;11.70;4.85;;;;;;;-148.88;85.83;76059.56;4993864;28;20057;-74
2022/06/13 03:20:46;;;;;;;12.63;4.90;;;;;;;-148.88;86.74;76069.72;4994038;28;20037;-74
2022/06/13 03:23:18;;;;;;;13.32;4.43;;;;;;;-148.88;86.69;76063.63;4993720;28;20034;-74
2022/06/13 03:25:52;;;;;;;9.18;4.63;;;;;;;-148.88;85.89;76053.47;4992339;28;20022;-74
2022/06/13 03:28:25;;;;;;;15.45;4.85;;;;;;;-148.88;85.65;76033.16;5018281;23;20452;-92
2022/06/13 03:30:56;;;;;;;13.57;5.47;;;;;;;-148.88;85.58;76016.91;4994552;28;20092;-91
2022/06/13 03:33:41;;;;;;;11.77;4.47;;;;;;;-148.88;85.66;76020.97;4994360;28;20037;-87
2022/06/13 03:36:29;;;;;;;12.43;5.03;;;;;;;-148.88;85.98;76016.91;4995825;28;20034;-91
2022/06/13 03:39:31;;;;;;;11.55;5.22;;;;;;;-148.88;86.09;76025.03;4945774;28;20066;-90
2022/06/13 03:42:04;;;;;;;12.82;4.68;;;;;;;-148.88;86.45;76037.22;4975890;28;20370;-91
2022/06/13 03:44:41;;;;;;;10.47;4.57;;;;;;;-148.88;86.72;76053.47;4975122;28;20031;-90
2022/06/13 03:47:16;;;;;;;16.35;4.85;;;;;;;-148.88;88.23;76090.03;4977703;28;20078;-88
2022/06/13 03:49:56;;;;;;;15.82;5.32;;;;;;;-148.88;88.27;76077.84;4975370;28;20027;-88
2022/06/13 03:55:15;;;;;;;12.23;5.00;;;;;;;-148.88;90.88;76102.22;4974828;28;20038;-87
2022/06/13 03:57:57;;;;;;;9.98;5.45;;;;;;;-148.88;92.41;76090.03;4974351;28;20122;-85
2022/06/13 04:01:02;;;;;;;12.02;5.95;;;;;;;-148.88;95.57;76110.34;4974419;28;20504;-84
2022/06/13 04:03:29;;;;;;;13.93;6.10;;;;;;;-148.88;96.99;76112.41;4973527;28;20093;-86
2022/06/13 04:06:02;;;;;;;14.40;6.10;;;;;;;-148.88;96.93;76118.47;4973901;28;20045;-88
2022/06/13 04:08:52;;;;;;;16.03;6.20;;;;;;;-148.88;98.09;76114.41;4974210;28;20022;-87
2022/06/13 04:11:51;;;;;;;15.48;6.47;;;;;;;-148.88;98.92;76118.47;4956016;28;20035;-86
2022/06/13 04:14:29;;;;;;;16.40;6.47;;;;;;;-148.88;99.88;76124.56;4974758;28;20023;-86
2022/06/13 04:17:31;;;;;;;10.38;6.30;;;;;;;-148.88;100.00;76126.59;4975227;28;20485;-88
2022/06/13 04:20:03;;;;;;;13.18;6.10;;;;;;;-148.88;99.93;76122.56;4973003;28;20039;-88
2022/06/13 04:22:46;;;;;;;15.73;6.30;;;;;;;-148.88;100.00;76114.41;4975434;28;20077;-89
2022/06/13 04:25:29;;;;;;;13.88;6.03;;;;;;;-148.88;100.00;76104.25;4975491;28;20050;-84
2022/06/13 04:28:07;;;;;;;16.15;6.47;;;;;;;-148.88;100.00;76094.09;4975863;28;20093;-87
2022/06/13 04:30:35;;;;;;;13.32;6.18;;;;;;;-148.88;100.00;76081.91;4975449;28;20034;-86
2022/06/13 04:33:08;;;;;;;12.63;6.30;;;;;;;-148.88;100.00;76081.91;4973974;28;20046;-87
2022/06/13 04:35:36;;;;;;;16.00;6.82;;;;;;;-148.88;100.00;76077.84;4973243;28;20053;-85
2022/06/13 04:38:13;;;;;;;12.05;7.15;;;;;;;-148.88;100.00;76079.88;4973201;28;20030;-86
2022/06/13 04:40:48;;;;;;;14.68;7.25;;;;;;;-148.88;100.00;76071.75;4973863;28;20067;-86
2022/06/13 04:43:15;;;;;;;14.63;6.30;;;;;;;-148.88;100.00;76073.78;4990276;28;20580;-85
2022/06/13 04:45:50;;;;;;;15.48;6.78;;;;;;;-148.88;100.00;76067.69;4974186;28;20027;-86
2022/06/13 04:48:16;;;;;;;15.45;6.32;;;;;;;-148.88;100.00;76061.59;4974296;28;20023;-86
2022/06/13 04:50:45;;;;;;;13.40;6.65;;;;;;;-148.88;100.00;76063.63;4973764;28;20027;-86
2022/06/13 04:53:29;;;;;;;17.27;6.95;;;;;;;-148.88;100.00;76059.56;4974716;28;20122;-86
2022/06/13 04:55:55;;;;;;;13.13;6.38;;;;;;;-148.88;100.00;76053.47;4974727;28;20027;-86
2022/06/13 04:58:34;;;;;;;15.50;6.13;;;;;;;-148.88;100.00;76049.41;4990600;28;20031;-86
2022/06/13 05:01:24;;;;;;;16.17;7.00;;;;;;;-148.88;100.00;76057.53;4974377;28;20478;-86
2022/06/13 05:04:06;;;;;;;11.35;5.65;;;;;;;-148.88;100.00;76075.81;4975749;28;20027;-87
2022/06/13 05:06:44;;;;;;;14.85;6.63;;;;;;;-148.88;100.00;76077.84;4980238;28;20066;-86
2022/06/13 05:09:37;;;;;;;14.07;6.30;;;;;;;-148.88;100.00;76092.06;4982963;28;20022;-86
2022/06/13 05:12:09;;;;;;;12.20;5.38;;;;;;;-148.88;100.00;76098.16;4980841;28;20038;-84
2022/06/13 05:14:44;;;;;;;10.20;5.95;;;;;;;-148.88;100.00;76083.94;4977740;28;20030;-85
2022/06/13 05:17:44;;;;;;;13.80;6.20;;;;;;;-148.88;100.00;76094.09;4976739;28;20026;-84
2022/06/13 05:20:27;;;;;;;11.93;5.47;;;;;;;-148.88;100.00;76085.97;4977614;28;20114;-85
2022/06/13 05:23:21;;;;;;;12.90;5.30;;;;;;;-148.88;100.00;76088.00;4977577;28;20022;-81
2022/06/13 05:25:50;;;;;;;11.65;5.30;;;;;;;-148.88;100.00;76077.84;4978336;28;20027;-81
2022/06/13 05:28:19;;;;;;;11.48;4.82;;;;;;;-148.88;100.00;76077.84;4976554;28;20030;-81
2022/06/13 05:30:47;;;;;;;9.05;4.35;;;;;;;-148.88;99.30;76077.84;4977476;28;20088;-81
2022/06/13 05:33:16;;;;;;;11.82;4.93;;;;;;;-148.88;97.85;76069.72;4976601;28;20109;-80
2022/06/13 05:35:43;;;;;;;10.98;4.47;;;;;;;-148.88;97.89;76065.66;4976591;28;20036;-81
2022/06/13 05:38:25;;;;;;;8.82;3.75;;;;;;;-148.88;97.44;76061.59;4977469;28;20481;-82
2022/06/13 05:40:50;;;;;;;11.13;4.30;;;;;;;-148.88;97.46;76055.50;4977483;28;20103;-82
2022/06/13 05:43:16;;;;;;;9.85;4.28;;;;;;;-148.88;96.54;76061.59;4976776;28;20031;-82
2022/06/13 05:45:42;;;;;;;8.85;3.50;;;;;;;-148.88;95.44;76057.53;4979104;28;20022;-82
2022/06/13 05:48:14;;;;;;;7.80;3.78;;;;;;;-148.88;94.37;76057.53;4977401;28;20030;-81
2022/06/13 05:50:40;;;;;;;9.15;3.83;;;;;;;-148.88;93.95;76055.50;4975555;28;20031;-81
2022/06/13 05:53:05;;;;;;;10.85;3.55;;;;;;;-148.88;93.46;76053.47;4976627;28;20093;-81
2022/06/13 05:55:31;;;;;;;8.77;3.90;;;;;;;-148.88;93.53;76041.28;4976116;28;20023;-82
2022/06/13 05:57:56;;;;;;;10.40;4.25;;;;;;;-148.88;93.66;76045.34;4992534;28;20504;-84
2022/06/13 06:00:26;;;;;;;11.02;3.65;;;;;;;-148.88;94.04;76053.47;4977611;28;20027;-81
2022/06/13 06:02:51;;;;;;;10.25;3.70;;;;;;;-148.88;94.03;76055.50;4976300;28;20043;-83
2022/06/13 06:05:17;;;;;;;8.50;3.65;;;;;;;-148.88;94.79;76045.34;4979321;28;20044;-83
2022/06/13 06:07:42;;;;;;;7.80;3.90;;;;;;;-148.88;94.56;76037.22;4976358;28;20057;-83
2022/06/13 06:10:17;;;;;;;7.13;4.40;;;;;;;-148.88;94.61;76033.16;4977683;28;20061;-83
2022/06/13 06:12:42;;;;;;;7.63;4.40;;;;;;;-148.88;94.10;76033.16;4976098;28;20030;-84
2022/06/13 06:15:09;;;;;;;10.45;4.15;;;;;;;-148.88;94.56;76012.84;4975471;28;20034;-83
2022/06/13 06:17:37;;;;;;;9.70;4.15;;;;;;;-148.88;94.80;75998.63;4976535;28;20031;-84
2022/06/13 06:20:03;;;;;;;7.13;3.95;;;;;;;-148.88;93.42;75992.53;4977440;28;20037;-85
2022/06/13 06:22:29;;;;;;;7.45;3.75;;;;;;;-148.88;93.86;75968.16;4993224;28;20023;-83
2022/06/13 06:24:54;;;;;;;8.95;4.05;;;;;;;-148.88;92.58;75949.88;4978643;28;20500;-85
2022/06/13 06:27:19;;;;;;;9.02;3.97;;;;;;;-148.88;91.74;75939.72;4974599;28;20042;-83
2022/06/13 06:29:56;;;;;;;9.88;3.88;;;;;;;-148.88;91.66;75919.41;4991692;28;20182;-84
2022/06/13 06:32:21;;;;;;;6.20;3.42;;;;;;;-148.88;89.48;75907.22;4991229;28;20044;-84
2022/06/13 06:34:50;;;;;;;8.90;3.53;;;;;;;-148.88;87.40;75917.38;4975142;28;20421;-85
2022/06/13 06:37:21;;;;;;;6.20;3.25;;;;;;;-148.88;90.05;75913.31;4976389;28;20018;-86
2022/06/13 06:39:49;;;;;;;11.48;3.38;;;;;;;-148.88;87.76;75911.28;4975843;28;20023;-85
2022/06/13 06:42:14;;;;;;;8.10;3.50;;;;;;;-148.88;87.73;75884.88;4974921;28;20029;-86
2022/06/13 06:44:39;;;;;;;8.05;3.58;;;;;;;-148.88;89.18;75870.66;4976314;28;20023;-86
2022/06/13 06:47:06;;;;;;;10.88;3.22;;;;;;;-148.88;88.42;75854.41;4979341;28;20371;-86
2022/06/13 06:49:47;;;;;;;11.50;3.58;;;;;;;-148.88;85.37;75846.28;4976764;28;20031;-86
2022/06/13 06:52:12;;;;;;;7.05;3.05;;;;;;;-148.88;84.51;75838.16;4977831;28;20111;-85
2022/06/13 07:00:07;;;;;;;7.55;3.25;;;;;;;-148.88;82.31;75801.59;4977729;28;19933;-85
2022/06/13 07:02:33;;;;;;;8.85;3.28;;;;;;;-148.88;80.71;75811.75;4976479;28;20023;-83
2022/06/13 07:05:02;;;;;;;10.50;3.92;;;;;;;-148.88;81.64;75797.53;4975058;28;20026;-85
2022/06/13 07:07:28;;;;;;;11.90;3.33;;;;;;;-148.88;81.48;75795.50;4977493;28;20022;-85
2022/06/13 07:09:57;;;;;;;11.85;3.35;;;;;;;-148.88;81.04;75791.44;4976589;28;20027;-86
2022/06/13 07:12:23;;;;;;;7.30;3.22;;;;;;;-148.88;81.30;75765.03;4991976;28;20027;-84
2022/06/13 07:14:48;;;;;;;9.70;3.42;;;;;;;-148.88;79.98;75767.06;4976663;28;20037;-83
2022/06/13 07:17:14;;;;;;;10.18;3.67;;;;;;;-148.88;80.66;75756.91;4976637;28;20397;-84
2022/06/13 07:19:44;;;;;;;9.13;3.65;;;;;;;-148.88;78.70;75769.09;4977565;28;20027;-85
2022/06/13 07:22:12;;;;;;;12.25;3.72;;;;;;;-148.88;80.02;75760.97;4991736;28;20026;-84
2022/06/13 07:24:38;;;;;;;10.13;3.50;;;;;;;-148.88;81.29;75760.97;4977251;28;20057;-84
2022/06/13 07:27:03;;;;;;;10.82;3.78;;;;;;;-148.88;81.98;75752.84;4977632;28;20030;-85
2022/06/13 07:29:29;;;;;;;6.78;3.25;;;;;;;-148.88;82.20;75750.81;4977178;28;20048;-84
2022/06/13 07:32:00;;;;;;;10.27;3.90;;;;;;;-148.88;79.97;75748.78;4975947;28;20396;-84
2022/06/13 07:34:28;;;;;;;9.10;3.60;;;;;;;-148.88;79.71;75744.72;4976826;28;20027;-85
2022/06/13 07:36:56;;;;;;;7.55;3.55;;;;;;;-148.88;79.06;75744.72;4977092;28;20034;-86
2022/06/13 07:39:21;;;;;;;9.75;3.70;;;;;;;-148.88;78.28;75742.69;4975978;28;20030;-84
2022/06/13 07:41:47;;;;;;;12.23;4.00;;;;;;;-148.88;78.10;75736.59;4975486;28;20049;-82
2022/06/13 07:44:23;;;;;;;8.20;4.05;;;;;;;-148.88;78.38;75742.69;4975256;28;20374;-83
2022/06/13 07:46:50;;;;;;;10.60;4.13;;;;;;;-148.88;77.39;75734.56;4975149;28;20023;-83
2022/06/13 07:49:17;;;;;;;11.95;3.65;;;;;;;-148.88;76.72;75730.50;4974177;28;20027;-84
2022/06/13 07:51:42;;;;;;;11.75;4.60;;;;;;;-148.88;76.85;75732.53;4974282;28;20030;-85
2022/06/13 07:54:07;;;;;;;12.40;3.97;;;;;;;-148.88;78.48;75698.00;4973801;28;20027;-84
2022/06/13 07:56:38;;;;;;;9.45;3.92;;;;;;;-148.88;75.61;75700.03;4974185;28;20042;-84
2022/06/13 07:59:14;;;;;;;8.98;3.47;;;;;;;-148.88;75.67;75673.63;4974610;28;20066;-85
2022/06/13 08:01:39;;;;;;;11.43;3.70;;;;;;;-148.88;76.79;75639.09;4991144;28;20023;-85
2022/06/13 08:04:04;;;;;;;8.38;3.55;;;;;;;-148.88;72.55;75643.16;4990742;28;20389;-84
2022/06/13 08:06:30;;;;;;;12.95;3.88;;;;;;;-148.88;73.42;75641.13;4973861;28;20478;-84
2022/06/13 08:08:58;;;;;;;9.77;4.05;;;;;;;-148.88;73.08;75626.91;4989952;28;20019;-84
2022/06/13 08:11:39;;;;;;;13.77;4.32;;;;;;;-148.88;73.66;75616.75;4975189;28;20102;-85
2022/06/13 08:14:07;;;;;;;13.57;4.10;;;;;;;-148.88;71.63;75590.34;4990200;28;20019;-85
2022/06/13 08:16:39;;;;;;;9.80;3.55;;;;;;;-148.88;71.03;75572.09;4975220;28;20502;-84
2022/06/13 08:19:25;;;;;;;14.10;3.65;;;;;;;-148.88;67.81;75600.50;4989504;28;20477;-85
2022/06/13 08:21:51;;;;;;;12.20;4.05;;;;;;;-148.88;67.61;75572.09;4989724;28;20478;-84
2022/06/13 08:24:30;;;;;;;9.10;3.70;;;;;;;-148.88;67.44;75582.22;4989617;28;20454;-83
2022/06/13 08:26:56;;;;;;;9.00;3.13;;;;;;;-148.88;63.05;75592.38;4990578;28;20110;-86
2022/06/13 08:29:33;;;;;;;11.40;3.63;;;;;;;-148.88;64.70;75586.31;4990130;28;20122;-86
2022/06/13 08:32:07;;;;;;;11.50;4.97;;;;;;;-148.88;66.46;75561.94;4990099;28;20033;-86
2022/06/13 08:34:33;;;;;;;6.60;3.00;;;;;;;-148.88;64.76;75545.69;4992374;28;20027;-85
2022/06/13 08:37:11;;;;;;;9.98;3.65;;;;;;;-148.88;62.32;75545.69;4991278;28;20037;-85
2022/06/13 08:39:39;;;;;;;7.18;2.65;;;;;;;-148.88;62.80;75547.72;4989476;28;20039;-85
2022/06/13 08:42:22;;;;;;;7.63;3.38;;;;;;;-148.88;65.24;75523.34;4993261;28;20109;-86
2022/06/13 08:45:15;;;;;;;7.30;3.50;;;;;;;-148.88;61.63;75537.56;4978224;28;20500;-85
2022/06/13 08:48:26;;;;;;;7.25;2.90;;;;;;;-148.88;61.94;75505.06;4993728;28;20089;-84
2022/06/13 08:51:06;;;;;;;9.77;3.20;;;;;;;-148.88;62.98;75482.72;4978993;28;20026;-85
2022/06/13 08:53:59;;;;;;;8.00;3.30;;;;;;;-148.88;63.41;75450.22;4978552;28;20027;-83
2022/06/13 08:56:30;;;;;;;11.18;3.30;;;;;;;-148.88;63.73;75446.16;4993171;28;20113;-84
2022/06/13 08:59:22;;;;;;;8.45;3.33;;;;;;;-148.88;62.46;75444.13;4994064;28;20081;-85
2022/06/13 09:01:51;;;;;;;11.32;3.35;;;;;;;-148.88;62.51;75423.81;4993840;28;20023;-85
2022/06/13 09:04:31;;;;;;;13.73;3.22;;;;;;;-148.88;61.60;75421.78;4992994;28;20022;-84
2022/06/13 09:07:25;;;;;;;10.77;3.45;;;;;;;-148.88;59.53;75417.72;4993267;28;20532;-85
2022/06/13 09:10:07;;;;;;;9.95;3.45;;;;;;;-148.88;61.21;75444.13;4994553;28;20027;-84
2022/06/13 09:12:48;;;;;;;10.52;3.13;;;;;;;-148.88;60.43;75440.06;4993655;28;20031;-84
2022/06/13 09:15:17;;;;;;;7.18;2.97;;;;;;;-148.88;57.71;75458.34;4978541;28;20027;-85
2022/06/13 09:18:01;;;;;;;8.65;3.83;;;;;;;-148.88;58.67;75395.38;4996149;28;20477;-86
2022/06/13 09:20:56;;;;;;;8.48;2.90;;;;;;;-148.88;56.60;75407.56;4995058;28;20026;-85
2022/06/13 09:23:32;;;;;;;6.60;2.42;;;;;;;-148.88;56.88;75423.81;4995617;28;20023;-85
2022/06/13 09:26:35;;;;;;;8.13;3.05;;;;;;;-148.88;56.38;75448.19;4994813;28;20027;-84
2022/06/13 09:29:25;;;;;;;6.30;1.70;;;;;;;-148.88;63.35;75651.28;5034245;23;20054;-87
2022/06/13 09:32:10;;;;;;;7.38;2.00;;;;;;;-148.88;68.79;75789.41;4997106;28;20022;-88
2022/06/13 09:34:43;;;;;;;4.03;1.83;;;;;;;-148.88;70.13;75795.50;4997492;28;20039;-87
2022/06/13 09:37:23;;;;;;;8.25;2.03;;;;;;;-148.88;73.99;75882.84;5000578;28;20379;-86
2022/06/13 09:39:49;;;;;;;4.95;2.03;;;;;;;-148.88;77.83;75925.50;5015230;28;20191;-86
2022/06/13 09:43:06;;;;;;;4.43;1.75;;;;;;;-148.88;78.50;75919.41;5015033;28;20026;-86
2022/06/13 09:45:57;;;;;;;6.97;2.55;;;;;;;-148.88;78.26;75874.72;4969039;28;20034;-87
2022/06/13 09:48:42;;;;;;;5.70;2.35;;;;;;;-148.88;76.53;75823.94;4996435;28;20042;-88
2022/06/13 09:51:36;;;;;;;5.47;2.50;;;;;;;-148.88;75.28;75704.09;5010718;28;20018;-89
2022/06/13 09:54:50;;;;;;;5.88;2.53;;;;;;;-148.88;71.01;75596.44;4995476;28;20037;-86
2022/06/13 09:57:45;;;;;;;5.70;2.58;;;;;;;-148.88;67.97;75527.41;4986675;28;20035;-86
2022/06/13 10:00:47;;;;;;;5.47;2.53;;;;;;;-148.88;64.76;75472.56;5011668;28;20077;-87
2022/06/13 10:03:33;;;;;;;6.30;2.78;;;;;;;-148.88;65.47;75409.59;4995216;28;20370;-88
2022/06/13 10:06:25;;;;;;;6.45;2.40;;;;;;;-148.88;68.61;75450.22;5011615;28;20026;-85
2022/06/13 10:08:58;;;;;;;5.90;1.38;;;;;;;-148.88;68.44;75801.59;4995662;28;20037;-88
2022/06/13 10:11:48;;;;;;;3.78;1.10;;;;;;;-148.88;78.30;75980.34;4997161;28;20031;-87
2022/06/13 10:14:26;;;;;;;6.82;1.80;;;;;;;-148.88;85.17;76085.97;5009431;28;20457;-88
2022/06/13 10:17:01;;;;;;;5.10;1.52;;;;;;;-148.88;89.53;76157.09;4991730;28;20466;-89
2022/06/13 10:19:56;;;;;;;5.50;2.00;;;;;;;-148.88;93.04;76177.41;4975301;28;20113;-89
2022/06/13 10:22:37;;;;;;;3.33;1.70;;;;;;;-148.88;94.42;76209.91;4971269;28;20035;-90
2022/06/13 10:25:23;;;;;;;3.67;1.42;;;;;;;-148.88;95.99;76207.88;4975283;28;20030;-86
2022/06/13 10:28:14;;;;;;;3.55;1.50;;;;;;;-148.88;93.04;76224.13;4975954;28;20039;-88
2022/06/13 10:31:07;;;;;;;4.65;1.50;;;;;;;-148.88;91.26;76232.25;4991776;28;20121;-89
2022/06/13 10:33:59;;;;;;;4.30;1.70;;;;;;;-148.88;93.63;76232.25;4975073;28;20030;-87
2022/06/13 10:36:42;;;;;;;3.33;1.70;;;;;;;-148.88;91.81;76216.00;4991402;28;20033;-88
2022/06/13 10:39:12;;;;;;;2.10;1.05;;;;;;;-148.88;86.52;76216.00;4992359;28;20038;-88
2022/06/13 10:41:41;;;;;;;5.30;2.05;;;;;;;-148.88;89.17;76167.25;4976376;28;20042;-87
2022/06/13 10:44:09;;;;;;;2.25;0.90;;;;;;;-148.88;87.36;76159.13;4974884;28;20493;-86
2022/06/13 10:46:34;;;;;;;5.78;1.45;;;;;;;-148.88;87.66;76126.59;4991056;28;20114;-87
2022/06/13 10:49:24;;;;;;;4.47;1.33;;;;;;;-148.88;86.78;76085.97;4991685;28;20421;-88
2022/06/13 10:51:55;;;;;;;4.22;1.50;;;;;;;-148.88;84.78;76049.41;4991787;28;20474;-88
2022/06/13 10:54:28;;;;;;;3.92;1.15;;;;;;;-148.88;79.92;76029.09;4990960;28;20049;-87
2022/06/13 10:57:03;;;;;;;3.45;1.10;;;;;;;-148.88;82.67;75990.50;4975010;28;20478;-86
2022/06/13 10:59:33;;;;;;;1.13;0.70;;;;;;;-148.88;78.30;75968.16;4976831;28;20129;-87
2022/06/13 11:02:19;;;;;;;3.17;1.00;;;;;;;-148.88;76.00;75955.97;5011073;28;20420;-88
2022/06/13 11:04:45;;;;;;;2.75;1.10;;;;;;;-148.88;76.18;75955.97;5010804;28;20077;-88
2022/06/13 11:07:14;;;;;;;2.90;1.30;;;;;;;-148.88;76.04;75929.56;5010646;28;20554;-90
2022/06/13 11:09:46;;;;;;;2.38;1.10;;;;;;;-148.88;77.36;75842.22;4995442;28;20034;-89
2022/06/13 11:12:31;;;;;;;2.00;1.15;;;;;;;-148.88;76.65;75732.53;4994862;28;20034;-87
2022/06/13 11:23:46;;;;;;;2.72;1.15;;;;;;;-148.88;68.02;75639.09;4976573;28;20043;-87
2022/06/13 11:28:58;;;;;;;4.30;1.50;;;;;;;-148.88;64.21;75553.81;4995172;28;20052;-87
2022/06/13 11:31:26;;;;;;;3.08;1.10;;;;;;;-148.88;62.39;75505.06;5010097;28;20437;-87
2022/06/13 11:33:53;;;;;;;4.47;1.13;;;;;;;-148.88;63.67;75480.69;4995069;28;20389;-88
2022/06/13 11:36:26;;;;;;;4.75;1.23;;;;;;;-148.88;61.09;75454.28;4996997;28;20547;-86
2022/06/13 11:39:04;;;;;;;1.63;0.90;;;;;;;-148.88;62.98;75602.53;4995376;28;20400;-87
2022/06/13 11:41:39;;;;;;;3.15;0.68;;;;;;;-148.88;62.33;75797.53;4994310;28;20116;-86
2022/06/13 11:44:08;;;;;;;1.50;0.70;;;;;;;-148.88;65.57;75923.47;4994958;28;20034;-87
2022/06/13 11:46:57;;;;;;;2.28;0.65;;;;;;;-148.88;66.16;75953.94;4993421;28;20033;-87
2022/06/13 11:49:29;;;;;;;4.80;0.80;;;;;;;-148.88;68.49;75972.22;5011841;28;20049;-86
2022/06/13 11:52:06;;;;;;;3.17;0.82;;;;;;;-148.88;67.49;75980.34;4996929;28;20046;-86
2022/06/13 11:54:34;;;;;;;1.23;0.60;;;;;;;-148.88;66.51;75988.47;4993773;28;20497;-85
2022/06/13 11:57:31;;;;;;;2.55;0.63;;;;;;;-148.88;65.97;75990.50;5010457;28;20081;-87
2022/06/13 12:00:18;;;;;;;2.28;0.70;;;;;;;-148.88;64.78;75978.31;4987826;28;20041;-88
2022/06/13 12:02:49;;;;;;;3.22;0.82;;;;;;;-148.88;63.85;75962.06;5012692;28;20105;-85
2022/06/13 12:05:23;;;;;;;1.42;0.70;;;;;;;-148.88;62.87;75943.78;5012467;28;20130;-86
2022/06/13 12:07:54;;;;;;;2.72;0.73;;;;;;;-148.88;62.24;75937.69;4995397;28;20461;-86
2022/06/13 12:10:23;;;;;;;1.55;0.60;;;;;;;-148.88;63.82;75951.91;4993984;28;20062;-85
2022/06/13 12:12:48;;;;;;;3.25;0.73;;;;;;;-148.88;65.05;75947.84;4992928;28;20105;-86
2022/06/13 12:15:15;;;;;;;3.22;0.70;;;;;;;-148.88;66.56;75931.59;4997800;28;20182;-86